Aeroporto :
LOGIN :

Iscrizione | Disclaimer

   EN    FR    IT 

 










Sommario :    VFR   VFR Marginale   IFR   IFR Intensivo   IFR Molto Intensivo
Visibilità : 
Base nubi : 
>= 8 km
>= 3000ft
5 / 8 km
1000 / 3000 ft
1500m / 5 km
500 / 1000 ft
800 / 1500m
200 / 500 ft
< 800m
< 200 ft
Simboli :   Temporali  Nebbia  Neve Forte  Precipitazioni Forti  Vento > 20 kt
SIGMETs :   Varie  Temporali  Ghiacco  Turbolenza  Onda orograficha  Ceneri Vulcaniche






- Altitudine del aeroporto : 1367 ft
- Codice IATA : FDH


EDNY - Friedrichshafen

ULTIMO METAR :
  • 210020Z AUTO 24009KT 9999 // BKN035/// OVC047/// 07/03 Q1022

METARs OBSOLETI :
  • 202350Z AUTO 24009KT 9999 // BKN041/// OVC056/// 08/02 Q1022
  • 202320Z AUTO 24009KT 9999 // OVC059/// 08/01 Q1021
  • 202250Z AUTO 22011KT 9999 // BKN063/// BKN073/// 08/01 Q1021
  • 202220Z AUTO 22010KT 9999 // FEW081/// 06/01 Q1021
  • 202150Z AUTO 20009KT 9999 // NCD 06/01 Q1021

TAF TAF EDNY
Valido dal 21 a 00 ore il 22 a 00 ore UTC


202300Z 2100/2124 24010KT 9999 BKN035
TEMPO 2100/2103 27015G30KT
BECMG 2103/2105 31008KT
BECMG 2106/2108 25007KT
BECMG 2116/2118 VRB03KT



MetMap, La meteo Aeronautica in un colpo d'occhio ! - Copyright ORBIFLY Dicembre 2007 - Disclaimer

ORBIFLY MET'MAP TEAM :

Programmazione e sviluppo : Alexandra Zaïnal
Concezione : Baudouin d'Aumeries
Aiuto per la programmazione : Marc-Olivier Méhu
Supporto tecnico e logistico : Manuel Goepfert
Aiuto per la traduzione : Arnaldo La Scala

Contatto : metmap@orbifly.com




FONTI E CREDITI :

   NOAA